sensor_id;sensor_type;location;lat;lon;timestamp;P1;durP1;ratioP1;P2;durP2;ratioP2
31808;SDS011;18379;48.208;-1.518;2023-04-25T00:00:12;41.33;;;37.70;;
31808;SDS011;18379;48.208;-1.518;2023-04-25T00:05:13;40.47;;;37.10;;
31808;SDS011;18379;48.208;-1.518;2023-04-25T00:10:17;43.87;;;40.33;;
31808;SDS011;18379;48.208;-1.518;2023-04-25T00:15:18;43.60;;;39.53;;
31808;SDS011;18379;48.208;-1.518;2023-04-25T00:20:19;41.70;;;38.10;;
31808;SDS011;18379;48.208;-1.518;2023-04-25T00:25:20;41.17;;;37.50;;
31808;SDS011;18379;48.208;-1.518;2023-04-25T00:30:21;40.70;;;37.30;;
31808;SDS011;18379;48.208;-1.518;2023-04-25T00:35:22;41.57;;;37.97;;
31808;SDS011;18379;48.208;-1.518;2023-04-25T00:40:23;40.87;;;37.33;;
31808;SDS011;18379;48.208;-1.518;2023-04-25T00:45:26;40.70;;;37.33;;
31808;SDS011;18379;48.208;-1.518;2023-04-25T00:50:29;38.20;;;35.17;;
31808;SDS011;18379;48.208;-1.518;2023-04-25T00:55:30;38.60;;;35.40;;
31808;SDS011;18379;48.208;-1.518;2023-04-25T01:00:31;38.10;;;34.93;;
31808;SDS011;18379;48.208;-1.518;2023-04-25T01:05:32;37.97;;;34.53;;
31808;SDS011;18379;48.208;-1.518;2023-04-25T01:10:33;38.17;;;34.90;;
31808;SDS011;18379;48.208;-1.518;2023-04-25T01:15:34;38.20;;;35.13;;
31808;SDS011;18379;48.208;-1.518;2023-04-25T01:20:36;38.73;;;35.13;;
31808;SDS011;18379;48.208;-1.518;2023-04-25T01:25:41;37.97;;;34.97;;
31808;SDS011;18379;48.208;-1.518;2023-04-25T01:30:42;40.47;;;36.60;;
31808;SDS011;18379;48.208;-1.518;2023-04-25T01:35:43;41.00;;;37.17;;
31808;SDS011;18379;48.208;-1.518;2023-04-25T01:40:45;41.33;;;37.50;;
31808;SDS011;18379;48.208;-1.518;2023-04-25T01:45:47;53.73;;;48.10;;
31808;SDS011;18379;48.208;-1.518;2023-04-25T01:50:51;57.37;;;48.40;;
31808;SDS011;18379;48.208;-1.518;2023-04-25T01:55:52;53.40;;;48.30;;
31808;SDS011;18379;48.208;-1.518;2023-04-25T02:00:53;50.73;;;45.40;;
31808;SDS011;18379;48.208;-1.518;2023-04-25T02:05:54;51.23;;;46.23;;
31808;SDS011;18379;48.208;-1.518;2023-04-25T02:10:55;56.07;;;46.47;;
31808;SDS011;18379;48.208;-1.518;2023-04-25T02:15:55;53.70;;;48.10;;
31808;SDS011;18379;48.208;-1.518;2023-04-25T02:20:57;52.87;;;47.43;;
31808;SDS011;18379;48.208;-1.518;2023-04-25T02:25:59;42.37;;;38.43;;
31808;SDS011;18379;48.208;-1.518;2023-04-25T02:31:00;36.70;;;33.90;;
31808;SDS011;18379;48.208;-1.518;2023-04-25T02:36:01;38.47;;;35.00;;
31808;SDS011;18379;48.208;-1.518;2023-04-25T02:41:02;36.80;;;33.93;;
31808;SDS011;18379;48.208;-1.518;2023-04-25T02:46:03;38.80;;;35.17;;
31808;SDS011;18379;48.208;-1.518;2023-04-25T02:51:05;39.37;;;35.57;;
31808;SDS011;18379;48.208;-1.518;2023-04-25T02:56:06;37.67;;;34.37;;
31808;SDS011;18379;48.208;-1.518;2023-04-25T03:01:06;39.40;;;35.70;;
31808;SDS011;18379;48.208;-1.518;2023-04-25T03:06:07;39.50;;;35.97;;
31808;SDS011;18379;48.208;-1.518;2023-04-25T03:11:08;37.50;;;34.43;;
31808;SDS011;18379;48.208;-1.518;2023-04-25T03:16:09;39.23;;;35.30;;
31808;SDS011;18379;48.208;-1.518;2023-04-25T03:21:09;37.17;;;34.57;;
31808;SDS011;18379;48.208;-1.518;2023-04-25T03:26:10;38.40;;;35.07;;
31808;SDS011;18379;48.208;-1.518;2023-04-25T03:31:11;38.93;;;35.30;;
31808;SDS011;18379;48.208;-1.518;2023-04-25T03:36:12;38.53;;;34.63;;
31808;SDS011;18379;48.208;-1.518;2023-04-25T03:41:12;38.47;;;34.93;;
31808;SDS011;18379;48.208;-1.518;2023-04-25T03:46:13;38.53;;;35.03;;
31808;SDS011;18379;48.208;-1.518;2023-04-25T03:51:14;43.17;;;38.73;;
31808;SDS011;18379;48.208;-1.518;2023-04-25T03:56:15;40.93;;;37.40;;
31808;SDS011;18379;48.208;-1.518;2023-04-25T04:01:16;40.60;;;36.80;;
31808;SDS011;18379;48.208;-1.518;2023-04-25T04:06:17;40.13;;;36.23;;
31808;SDS011;18379;48.208;-1.518;2023-04-25T04:11:19;37.67;;;34.67;;
31808;SDS011;18379;48.208;-1.518;2023-04-25T04:16:21;36.77;;;33.77;;
31808;SDS011;18379;48.208;-1.518;2023-04-25T04:21:22;36.80;;;33.67;;
31808;SDS011;18379;48.208;-1.518;2023-04-25T04:26:23;38.10;;;34.77;;
31808;SDS011;18379;48.208;-1.518;2023-04-25T04:31:24;38.20;;;34.97;;
31808;SDS011;18379;48.208;-1.518;2023-04-25T04:36:25;37.87;;;34.77;;
31808;SDS011;18379;48.208;-1.518;2023-04-25T04:41:26;38.17;;;34.60;;
31808;SDS011;18379;48.208;-1.518;2023-04-25T04:46:27;38.43;;;35.07;;
31808;SDS011;18379;48.208;-1.518;2023-04-25T04:51:31;39.17;;;35.97;;
31808;SDS011;18379;48.208;-1.518;2023-04-25T04:56:32;39.67;;;36.20;;
31808;SDS011;18379;48.208;-1.518;2023-04-25T05:01:33;40.97;;;36.93;;
31808;SDS011;18379;48.208;-1.518;2023-04-25T05:06:36;39.40;;;35.63;;
31808;SDS011;18379;48.208;-1.518;2023-04-25T05:11:36;40.50;;;35.37;;
31808;SDS011;18379;48.208;-1.518;2023-04-25T05:16:37;39.10;;;35.23;;
31808;SDS011;18379;48.208;-1.518;2023-04-25T05:21:38;40.43;;;36.23;;
31808;SDS011;18379;48.208;-1.518;2023-04-25T05:26:39;38.67;;;35.30;;
31808;SDS011;18379;48.208;-1.518;2023-04-25T05:31:40;41.57;;;37.70;;
31808;SDS011;18379;48.208;-1.518;2023-04-25T05:36:40;40.80;;;36.50;;
31808;SDS011;18379;48.208;-1.518;2023-04-25T05:41:41;40.03;;;35.97;;
31808;SDS011;18379;48.208;-1.518;2023-04-25T05:46:43;39.40;;;35.23;;
31808;SDS011;18379;48.208;-1.518;2023-04-25T05:51:43;38.57;;;34.90;;
31808;SDS011;18379;48.208;-1.518;2023-04-25T05:56:44;38.00;;;34.60;;
31808;SDS011;18379;48.208;-1.518;2023-04-25T06:01:45;38.00;;;34.60;;
31808;SDS011;18379;48.208;-1.518;2023-04-25T06:06:47;35.93;;;32.33;;
31808;SDS011;18379;48.208;-1.518;2023-04-25T06:11:48;38.13;;;34.57;;
31808;SDS011;18379;48.208;-1.518;2023-04-25T06:16:48;36.00;;;32.50;;
31808;SDS011;18379;48.208;-1.518;2023-04-25T06:21:49;35.97;;;33.03;;
31808;SDS011;18379;48.208;-1.518;2023-04-25T06:26:50;36.70;;;33.33;;
31808;SDS011;18379;48.208;-1.518;2023-04-25T06:31:51;34.73;;;32.17;;
31808;SDS011;18379;48.208;-1.518;2023-04-25T06:36:52;37.00;;;33.70;;
31808;SDS011;18379;48.208;-1.518;2023-04-25T06:41:52;39.17;;;35.63;;
31808;SDS011;18379;48.208;-1.518;2023-04-25T06:46:53;38.67;;;35.27;;
31808;SDS011;18379;48.208;-1.518;2023-04-25T06:51:54;38.07;;;34.97;;
31808;SDS011;18379;48.208;-1.518;2023-04-25T06:56:55;41.53;;;37.77;;
31808;SDS011;18379;48.208;-1.518;2023-04-25T07:01:56;41.33;;;37.67;;
31808;SDS011;18379;48.208;-1.518;2023-04-25T07:06:57;40.23;;;36.27;;
31808;SDS011;18379;48.208;-1.518;2023-04-25T07:11:58;39.70;;;36.70;;
31808;SDS011;18379;48.208;-1.518;2023-04-25T07:17:02;42.60;;;39.03;;
31808;SDS011;18379;48.208;-1.518;2023-04-25T07:22:03;43.10;;;39.57;;
31808;SDS011;18379;48.208;-1.518;2023-04-25T07:27:04;44.37;;;40.40;;
31808;SDS011;18379;48.208;-1.518;2023-04-25T07:32:05;45.40;;;41.23;;
31808;SDS011;18379;48.208;-1.518;2023-04-25T07:37:06;45.23;;;41.40;;
31808;SDS011;18379;48.208;-1.518;2023-04-25T07:42:07;46.77;;;42.63;;
31808;SDS011;18379;48.208;-1.518;2023-04-25T07:47:08;46.93;;;42.93;;
31808;SDS011;18379;48.208;-1.518;2023-04-25T07:52:09;47.70;;;43.33;;
31808;SDS011;18379;48.208;-1.518;2023-04-25T07:57:10;47.07;;;43.23;;
31808;SDS011;18379;48.208;-1.518;2023-04-25T08:02:11;45.87;;;42.07;;
31808;SDS011;18379;48.208;-1.518;2023-04-25T08:07:12;46.87;;;42.83;;
31808;SDS011;18379;48.208;-1.518;2023-04-25T08:12:14;48.07;;;43.93;;
31808;SDS011;18379;48.208;-1.518;2023-04-25T08:17:15;44.87;;;41.67;;
31808;SDS011;18379;48.208;-1.518;2023-04-25T08:22:16;47.10;;;43.27;;
31808;SDS011;18379;48.208;-1.518;2023-04-25T08:27:17;45.73;;;42.20;;
31808;SDS011;18379;48.208;-1.518;2023-04-25T08:32:19;43.73;;;40.57;;
31808;SDS011;18379;48.208;-1.518;2023-04-25T08:37:21;42.50;;;39.30;;
31808;SDS011;18379;48.208;-1.518;2023-04-25T08:42:22;42.87;;;39.90;;
31808;SDS011;18379;48.208;-1.518;2023-04-25T08:47:25;43.20;;;40.27;;
31808;SDS011;18379;48.208;-1.518;2023-04-25T08:52:28;42.17;;;39.40;;
31808;SDS011;18379;48.208;-1.518;2023-04-25T08:57:35;47.03;;;43.17;;
31808;SDS011;18379;48.208;-1.518;2023-04-25T09:02:37;44.97;;;41.60;;
31808;SDS011;18379;48.208;-1.518;2023-04-25T09:07:39;45.53;;;42.20;;
31808;SDS011;18379;48.208;-1.518;2023-04-25T09:12:40;46.00;;;42.33;;
31808;SDS011;18379;48.208;-1.518;2023-04-25T09:17:41;46.23;;;42.93;;
31808;SDS011;18379;48.208;-1.518;2023-04-25T09:22:45;46.47;;;43.03;;
31808;SDS011;18379;48.208;-1.518;2023-04-25T09:27:49;46.67;;;43.03;;
31808;SDS011;18379;48.208;-1.518;2023-04-25T09:32:52;44.83;;;41.03;;
31808;SDS011;18379;48.208;-1.518;2023-04-25T09:37:57;44.40;;;41.60;;
31808;SDS011;18379;48.208;-1.518;2023-04-25T09:42:58;45.73;;;42.73;;
31808;SDS011;18379;48.208;-1.518;2023-04-25T09:48:18;47.23;;;43.93;;
31808;SDS011;18379;48.208;-1.518;2023-04-25T09:53:24;47.93;;;44.43;;
31808;SDS011;18379;48.208;-1.518;2023-04-25T09:58:26;46.90;;;43.27;;
31808;SDS011;18379;48.208;-1.518;2023-04-25T10:03:35;47.90;;;44.50;;
31808;SDS011;18379;48.208;-1.518;2023-04-25T10:08:38;48.70;;;45.53;;
31808;SDS011;18379;48.208;-1.518;2023-04-25T10:13:39;49.23;;;45.77;;
31808;SDS011;18379;48.208;-1.518;2023-04-25T10:18:41;48.37;;;45.27;;
31808;SDS011;18379;48.208;-1.518;2023-04-25T10:23:42;47.90;;;44.50;;
31808;SDS011;18379;48.208;-1.518;2023-04-25T10:28:55;46.50;;;43.60;;
31808;SDS011;18379;48.208;-1.518;2023-04-25T10:33:56;45.13;;;42.50;;
31808;SDS011;18379;48.208;-1.518;2023-04-25T10:39:03;45.23;;;42.33;;
31808;SDS011;18379;48.208;-1.518;2023-04-25T10:44:06;48.07;;;44.87;;
31808;SDS011;18379;48.208;-1.518;2023-04-25T10:49:09;47.83;;;44.50;;
31808;SDS011;18379;48.208;-1.518;2023-04-25T10:54:10;49.37;;;45.67;;
31808;SDS011;18379;48.208;-1.518;2023-04-25T10:59:13;47.83;;;44.40;;
31808;SDS011;18379;48.208;-1.518;2023-04-25T11:09:34;45.83;;;42.87;;
31808;SDS011;18379;48.208;-1.518;2023-04-25T11:14:36;46.77;;;43.60;;
31808;SDS011;18379;48.208;-1.518;2023-04-25T11:19:37;47.07;;;43.87;;
31808;SDS011;18379;48.208;-1.518;2023-04-25T11:24:38;46.50;;;43.43;;
31808;SDS011;18379;48.208;-1.518;2023-04-25T11:29:39;47.23;;;43.90;;
31808;SDS011;18379;48.208;-1.518;2023-04-25T11:34:42;48.23;;;45.07;;
31808;SDS011;18379;48.208;-1.518;2023-04-25T11:39:44;48.70;;;45.33;;
31808;SDS011;18379;48.208;-1.518;2023-04-25T11:44:46;48.57;;;45.17;;
31808;SDS011;18379;48.208;-1.518;2023-04-25T11:49:47;50.73;;;46.90;;
31808;SDS011;18379;48.208;-1.518;2023-04-25T11:54:52;43.53;;;41.10;;
31808;SDS011;18379;48.208;-1.518;2023-04-25T11:59:54;45.37;;;42.57;;
31808;SDS011;18379;48.208;-1.518;2023-04-25T12:04:58;44.53;;;41.77;;
31808;SDS011;18379;48.208;-1.518;2023-04-25T12:10:03;45.03;;;42.13;;
31808;SDS011;18379;48.208;-1.518;2023-04-25T12:15:09;47.40;;;44.50;;
31808;SDS011;18379;48.208;-1.518;2023-04-25T12:20:15;48.50;;;45.23;;
31808;SDS011;18379;48.208;-1.518;2023-04-25T12:25:36;50.27;;;46.87;;
31808;SDS011;18379;48.208;-1.518;2023-04-25T12:31:03;49.33;;;46.00;;
31808;SDS011;18379;48.208;-1.518;2023-04-25T12:36:06;49.17;;;46.07;;
31808;SDS011;18379;48.208;-1.518;2023-04-25T12:41:12;50.13;;;46.80;;
31808;SDS011;18379;48.208;-1.518;2023-04-25T12:46:12;49.00;;;45.97;;
31808;SDS011;18379;48.208;-1.518;2023-04-25T12:51:13;48.93;;;45.83;;
31808;SDS011;18379;48.208;-1.518;2023-04-25T12:56:14;48.77;;;45.57;;
31808;SDS011;18379;48.208;-1.518;2023-04-25T13:01:15;47.47;;;44.27;;
31808;SDS011;18379;48.208;-1.518;2023-04-25T13:06:16;47.80;;;44.70;;
31808;SDS011;18379;48.208;-1.518;2023-04-25T13:11:18;48.30;;;45.30;;
31808;SDS011;18379;48.208;-1.518;2023-04-25T13:16:19;48.17;;;45.07;;
31808;SDS011;18379;48.208;-1.518;2023-04-25T13:21:20;46.80;;;44.10;;
31808;SDS011;18379;48.208;-1.518;2023-04-25T13:26:21;47.10;;;44.20;;
31808;SDS011;18379;48.208;-1.518;2023-04-25T13:31:22;46.13;;;43.10;;
31808;SDS011;18379;48.208;-1.518;2023-04-25T13:36:23;46.27;;;43.43;;
31808;SDS011;18379;48.208;-1.518;2023-04-25T13:41:24;46.57;;;43.80;;
31808;SDS011;18379;48.208;-1.518;2023-04-25T13:46:25;46.87;;;44.07;;
31808;SDS011;18379;48.208;-1.518;2023-04-25T13:51:26;46.30;;;43.60;;
31808;SDS011;18379;48.208;-1.518;2023-04-25T13:56:27;47.43;;;44.43;;
31808;SDS011;18379;48.208;-1.518;2023-04-25T14:01:28;46.43;;;43.77;;
31808;SDS011;18379;48.208;-1.518;2023-04-25T14:06:31;46.37;;;43.53;;
31808;SDS011;18379;48.208;-1.518;2023-04-25T14:11:33;48.07;;;45.10;;
31808;SDS011;18379;48.208;-1.518;2023-04-25T14:16:33;48.77;;;45.73;;
31808;SDS011;18379;48.208;-1.518;2023-04-25T14:21:35;50.27;;;47.00;;
31808;SDS011;18379;48.208;-1.518;2023-04-25T14:26:36;51.17;;;47.80;;
31808;SDS011;18379;48.208;-1.518;2023-04-25T14:31:37;50.80;;;47.50;;
31808;SDS011;18379;48.208;-1.518;2023-04-25T14:36:40;50.70;;;47.27;;
31808;SDS011;18379;48.208;-1.518;2023-04-25T14:41:41;49.93;;;46.70;;
31808;SDS011;18379;48.208;-1.518;2023-04-25T14:46:42;49.23;;;45.90;;
31808;SDS011;18379;48.208;-1.518;2023-04-25T14:51:43;50.33;;;47.07;;
31808;SDS011;18379;48.208;-1.518;2023-04-25T14:56:43;50.00;;;46.63;;
31808;SDS011;18379;48.208;-1.518;2023-04-25T15:01:44;52.83;;;49.23;;
31808;SDS011;18379;48.208;-1.518;2023-04-25T15:06:45;52.03;;;48.70;;
31808;SDS011;18379;48.208;-1.518;2023-04-25T15:11:46;61.07;;;56.87;;
31808;SDS011;18379;48.208;-1.518;2023-04-25T15:16:47;60.17;;;56.03;;
31808;SDS011;18379;48.208;-1.518;2023-04-25T15:21:48;61.77;;;57.40;;
31808;SDS011;18379;48.208;-1.518;2023-04-25T15:26:49;63.27;;;58.67;;
31808;SDS011;18379;48.208;-1.518;2023-04-25T15:31:50;63.47;;;58.57;;
31808;SDS011;18379;48.208;-1.518;2023-04-25T15:36:51;48.93;;;45.83;;
31808;SDS011;18379;48.208;-1.518;2023-04-25T15:41:52;48.73;;;45.53;;
31808;SDS011;18379;48.208;-1.518;2023-04-25T15:46:53;48.63;;;45.73;;
31808;SDS011;18379;48.208;-1.518;2023-04-25T15:51:54;48.77;;;45.57;;
31808;SDS011;18379;48.208;-1.518;2023-04-25T15:56:56;48.57;;;45.47;;
31808;SDS011;18379;48.208;-1.518;2023-04-25T16:01:57;47.70;;;44.70;;
31808;SDS011;18379;48.208;-1.518;2023-04-25T16:06:58;47.73;;;44.83;;
31808;SDS011;18379;48.208;-1.518;2023-04-25T16:11:59;48.70;;;45.60;;
31808;SDS011;18379;48.208;-1.518;2023-04-25T16:17:00;47.47;;;44.47;;
31808;SDS011;18379;48.208;-1.518;2023-04-25T16:22:01;47.00;;;44.10;;
31808;SDS011;18379;48.208;-1.518;2023-04-25T16:27:03;46.83;;;43.97;;
31808;SDS011;18379;48.208;-1.518;2023-04-25T16:32:05;49.67;;;46.37;;
31808;SDS011;18379;48.208;-1.518;2023-04-25T16:37:05;50.77;;;47.20;;
31808;SDS011;18379;48.208;-1.518;2023-04-25T16:42:06;50.53;;;47.30;;
31808;SDS011;18379;48.208;-1.518;2023-04-25T16:47:07;50.50;;;47.10;;
31808;SDS011;18379;48.208;-1.518;2023-04-25T16:52:08;50.97;;;47.47;;
31808;SDS011;18379;48.208;-1.518;2023-04-25T16:57:12;50.83;;;47.53;;
31808;SDS011;18379;48.208;-1.518;2023-04-25T17:02:17;52.13;;;48.53;;
31808;SDS011;18379;48.208;-1.518;2023-04-25T17:07:18;52.00;;;48.30;;
31808;SDS011;18379;48.208;-1.518;2023-04-25T17:12:23;50.20;;;46.87;;
31808;SDS011;18379;48.208;-1.518;2023-04-25T17:17:24;50.17;;;46.80;;
31808;SDS011;18379;48.208;-1.518;2023-04-25T17:22:25;48.63;;;45.43;;
31808;SDS011;18379;48.208;-1.518;2023-04-25T17:27:26;48.03;;;44.73;;
31808;SDS011;18379;48.208;-1.518;2023-04-25T17:32:30;47.37;;;44.27;;
31808;SDS011;18379;48.208;-1.518;2023-04-25T17:37:51;49.30;;;46.00;;
31808;SDS011;18379;48.208;-1.518;2023-04-25T17:42:52;48.63;;;45.43;;
31808;SDS011;18379;48.208;-1.518;2023-04-25T17:47:54;47.73;;;44.50;;
31808;SDS011;18379;48.208;-1.518;2023-04-25T17:52:55;47.30;;;44.20;;
31808;SDS011;18379;48.208;-1.518;2023-04-25T17:57:56;48.27;;;44.83;;
31808;SDS011;18379;48.208;-1.518;2023-04-25T18:02:56;48.83;;;45.37;;
31808;SDS011;18379;48.208;-1.518;2023-04-25T18:07:57;48.57;;;45.17;;
31808;SDS011;18379;48.208;-1.518;2023-04-25T18:12:58;48.70;;;45.23;;
31808;SDS011;18379;48.208;-1.518;2023-04-25T18:17:59;48.20;;;44.73;;
31808;SDS011;18379;48.208;-1.518;2023-04-25T18:23:02;47.10;;;43.90;;
31808;SDS011;18379;48.208;-1.518;2023-04-25T18:28:03;46.53;;;43.50;;
31808;SDS011;18379;48.208;-1.518;2023-04-25T18:33:04;48.13;;;45.00;;
31808;SDS011;18379;48.208;-1.518;2023-04-25T18:38:05;49.60;;;45.97;;
31808;SDS011;18379;48.208;-1.518;2023-04-25T18:43:05;48.00;;;44.93;;
31808;SDS011;18379;48.208;-1.518;2023-04-25T18:48:07;48.07;;;44.70;;
31808;SDS011;18379;48.208;-1.518;2023-04-25T18:53:08;48.83;;;45.53;;
31808;SDS011;18379;48.208;-1.518;2023-04-25T18:58:08;50.90;;;47.30;;
31808;SDS011;18379;48.208;-1.518;2023-04-25T19:03:10;47.53;;;44.33;;
31808;SDS011;18379;48.208;-1.518;2023-04-25T19:08:11;47.63;;;44.53;;
31808;SDS011;18379;48.208;-1.518;2023-04-25T19:13:12;47.90;;;44.80;;
31808;SDS011;18379;48.208;-1.518;2023-04-25T19:18:13;47.57;;;44.37;;
31808;SDS011;18379;48.208;-1.518;2023-04-25T19:23:14;48.47;;;45.07;;
31808;SDS011;18379;48.208;-1.518;2023-04-25T19:28:15;47.73;;;44.67;;
31808;SDS011;18379;48.208;-1.518;2023-04-25T19:33:16;47.00;;;44.00;;
31808;SDS011;18379;48.208;-1.518;2023-04-25T19:38:17;47.93;;;44.80;;
31808;SDS011;18379;48.208;-1.518;2023-04-25T19:43:18;48.10;;;44.83;;
31808;SDS011;18379;48.208;-1.518;2023-04-25T19:48:19;48.17;;;44.90;;
31808;SDS011;18379;48.208;-1.518;2023-04-25T19:53:20;47.57;;;44.17;;
31808;SDS011;18379;48.208;-1.518;2023-04-25T19:58:20;52.17;;;48.10;;
31808;SDS011;18379;48.208;-1.518;2023-04-25T20:03:22;46.47;;;43.27;;
31808;SDS011;18379;48.208;-1.518;2023-04-25T20:08:23;44.93;;;42.13;;
31808;SDS011;18379;48.208;-1.518;2023-04-25T20:13:24;50.50;;;47.00;;
31808;SDS011;18379;48.208;-1.518;2023-04-25T20:18:25;44.97;;;41.97;;
31808;SDS011;18379;48.208;-1.518;2023-04-25T20:23:26;44.77;;;41.97;;
31808;SDS011;18379;48.208;-1.518;2023-04-25T20:28:27;46.40;;;43.23;;
31808;SDS011;18379;48.208;-1.518;2023-04-25T20:33:28;44.87;;;42.07;;
31808;SDS011;18379;48.208;-1.518;2023-04-25T20:38:29;45.07;;;42.07;;
31808;SDS011;18379;48.208;-1.518;2023-04-25T20:43:30;43.67;;;40.90;;
31808;SDS011;18379;48.208;-1.518;2023-04-25T20:48:31;44.80;;;42.07;;
31808;SDS011;18379;48.208;-1.518;2023-04-25T20:53:32;44.23;;;41.43;;
31808;SDS011;18379;48.208;-1.518;2023-04-25T20:58:33;44.10;;;41.43;;
31808;SDS011;18379;48.208;-1.518;2023-04-25T21:03:34;43.80;;;41.20;;
31808;SDS011;18379;48.208;-1.518;2023-04-25T21:08:35;44.73;;;41.87;;
31808;SDS011;18379;48.208;-1.518;2023-04-25T21:13:36;46.27;;;43.13;;
31808;SDS011;18379;48.208;-1.518;2023-04-25T21:18:37;47.83;;;44.40;;
31808;SDS011;18379;48.208;-1.518;2023-04-25T21:23:38;44.77;;;41.80;;
31808;SDS011;18379;48.208;-1.518;2023-04-25T21:28:40;44.93;;;41.60;;
31808;SDS011;18379;48.208;-1.518;2023-04-25T21:33:41;44.93;;;41.93;;
31808;SDS011;18379;48.208;-1.518;2023-04-25T21:38:42;44.17;;;41.30;;
31808;SDS011;18379;48.208;-1.518;2023-04-25T21:43:43;44.27;;;41.43;;
31808;SDS011;18379;48.208;-1.518;2023-04-25T21:48:44;49.40;;;46.00;;
31808;SDS011;18379;48.208;-1.518;2023-04-25T21:53:45;44.60;;;41.60;;
31808;SDS011;18379;48.208;-1.518;2023-04-25T21:58:45;44.80;;;41.83;;
31808;SDS011;18379;48.208;-1.518;2023-04-25T22:03:46;45.40;;;42.30;;
31808;SDS011;18379;48.208;-1.518;2023-04-25T22:08:47;44.73;;;41.60;;
31808;SDS011;18379;48.208;-1.518;2023-04-25T22:13:48;43.87;;;40.87;;
31808;SDS011;18379;48.208;-1.518;2023-04-25T22:18:50;45.13;;;42.00;;
31808;SDS011;18379;48.208;-1.518;2023-04-25T22:23:52;42.67;;;39.90;;
31808;SDS011;18379;48.208;-1.518;2023-04-25T22:28:53;41.50;;;39.00;;
31808;SDS011;18379;48.208;-1.518;2023-04-25T22:33:53;40.93;;;38.50;;
31808;SDS011;18379;48.208;-1.518;2023-04-25T22:38:54;42.77;;;40.17;;
31808;SDS011;18379;48.208;-1.518;2023-04-25T22:43:56;40.37;;;37.97;;
31808;SDS011;18379;48.208;-1.518;2023-04-25T22:48:56;41.30;;;38.90;;
31808;SDS011;18379;48.208;-1.518;2023-04-25T22:53:57;41.73;;;39.23;;
31808;SDS011;18379;48.208;-1.518;2023-04-25T22:58:59;41.67;;;39.17;;
31808;SDS011;18379;48.208;-1.518;2023-04-25T23:04:00;41.37;;;39.00;;
31808;SDS011;18379;48.208;-1.518;2023-04-25T23:09:01;41.33;;;38.63;;
31808;SDS011;18379;48.208;-1.518;2023-04-25T23:14:03;41.27;;;38.67;;
31808;SDS011;18379;48.208;-1.518;2023-04-25T23:19:04;43.40;;;40.43;;
31808;SDS011;18379;48.208;-1.518;2023-04-25T23:24:05;44.93;;;41.87;;
31808;SDS011;18379;48.208;-1.518;2023-04-25T23:29:06;47.87;;;44.27;;
31808;SDS011;18379;48.208;-1.518;2023-04-25T23:34:07;43.20;;;40.37;;
31808;SDS011;18379;48.208;-1.518;2023-04-25T23:39:08;44.00;;;41.00;;
31808;SDS011;18379;48.208;-1.518;2023-04-25T23:44:09;43.93;;;40.93;;
31808;SDS011;18379;48.208;-1.518;2023-04-25T23:49:11;44.17;;;41.23;;
31808;SDS011;18379;48.208;-1.518;2023-04-25T23:54:12;45.30;;;42.10;;
31808;SDS011;18379;48.208;-1.518;2023-04-25T23:59:12;43.03;;;40.23;;
